Cape Race, Canada
Current Conditions -  °F | °C
As of 9:00 AM on Monday 24 Nov 2014 (Local Time) from CYYT Reporting Station
Few Clouds Few Clouds  
Wind Chill: 16°   Ceiling: Unl
Heat Index: 28°   Visibility: 15mi
Dew Point: 18°   Wind: 17mph
Humidity: 64%   Direction: 300°WNW
Pressure: 30.28"   Gusts: 26mph
Location:  46.66°N, 53.09°W
Report Text: CYYT 241200Z 30015G23KT 15SM FEW020 FEW200 M02/M08 A3028 RMK SC1CI1 SLP262
Loading
Personal Weather Stations






























Interactive Weather Map New forecast layout! Learn more

10-Day Weather Forecast

Advertisements
Track Severe Weather on mobile